createdAt,value
2017-05-07T00:00:12.567Z,931.21
2017-05-07T00:00:25.173Z,931.23
2017-05-07T00:00:37.801Z,931.22
2017-05-07T00:00:50.437Z,931.21
2017-05-07T00:01:03.601Z,931.14
2017-05-07T00:01:16.212Z,931.21
2017-05-07T00:01:29.408Z,931.19
2017-05-07T00:01:42.537Z,931.2
2017-05-07T00:01:55.690Z,931.18
2017-05-07T00:02:08.884Z,931.16
2017-05-07T00:02:21.491Z,931.22
2017-05-07T00:02:34.617Z,931.19
2017-05-07T00:02:47.266Z,931.17
2017-05-07T00:03:00.400Z,931.17
2017-05-07T00:03:13.585Z,931.17
2017-05-07T00:03:25.757Z,931.14
2017-05-07T00:03:38.912Z,931.2
2017-05-07T00:03:51.499Z,931.17
2017-05-07T00:04:04.672Z,931.2
2017-05-07T00:04:17.254Z,931.2
2017-05-07T00:04:30.461Z,931.16
2017-05-07T00:04:43.369Z,931.2
2017-05-07T00:04:56.507Z,931.2
2017-05-07T00:05:09.634Z,931.19
2017-05-07T00:05:22.789Z,931.14
2017-05-07T00:05:35.448Z,931.19
2017-05-07T00:05:48.560Z,931.17
2017-05-07T00:06:01.706Z,931.2
2017-05-07T00:06:14.313Z,931.19
2017-05-07T00:06:27.466Z,931.17
2017-05-07T00:06:40.563Z,931.17
2017-05-07T00:06:53.722Z,931.15
2017-05-07T00:07:06.880Z,931.19
2017-05-07T00:07:20.023Z,931.17
2017-05-07T00:07:33.204Z,931.18
2017-05-07T00:07:46.344Z,931.17
2017-05-07T00:07:59.449Z,931.19
2017-05-07T00:08:11.565Z,931.19
2017-05-07T00:08:24.211Z,931.21
2017-05-07T00:08:37.351Z,931.27
2017-05-07T00:08:50.508Z,931.23
2017-05-07T00:09:03.660Z,931.28
2017-05-07T00:09:16.827Z,931.26
2017-05-07T00:09:28.953Z,931.2
2017-05-07T00:09:42.114Z,931.25
2017-05-07T00:09:54.820Z,931.26
2017-05-07T00:10:07.487Z,931.21
2017-05-07T00:10:19.633Z,931.26
2017-05-07T00:10:32.218Z,931.26
2017-05-07T00:10:45.355Z,931.21
2017-05-07T00:10:58.013Z,931.25
2017-05-07T00:11:11.175Z,931.21
2017-05-07T00:11:24.339Z,931.25
2017-05-07T00:11:37.417Z,931.27
2017-05-07T00:11:49.558Z,931.25
2017-05-07T00:12:02.726Z,931.29
2017-05-07T00:12:15.826Z,931.24
2017-05-07T00:12:28.983Z,931.21
2017-05-07T00:12:42.216Z,931.3
2017-05-07T00:12:55.281Z,931.31
2017-05-07T00:13:08.461Z,931.21
2017-05-07T00:13:20.654Z,931.24
2017-05-07T00:13:33.779Z,931.24
2017-05-07T00:13:46.938Z,931.24
2017-05-07T00:14:00.029Z,931.25
2017-05-07T00:14:13.124Z,931.28
2017-05-07T00:14:25.700Z,931.27
2017-05-07T00:14:38.860Z,931.26
2017-05-07T00:14:51.958Z,931.26
2017-05-07T00:15:05.163Z,931.27
2017-05-07T00:15:17.812Z,931.25
2017-05-07T00:15:30.431Z,931.25
2017-05-07T00:15:43.528Z,931.25
2017-05-07T00:15:56.853Z,931.23
2017-05-07T00:16:10.015Z,931.24
2017-05-07T00:16:23.192Z,931.25
2017-05-07T00:16:36.313Z,931.22
2017-05-07T00:16:49.490Z,931.25
2017-05-07T00:17:02.616Z,931.27
2017-05-07T00:17:15.299Z,931.22
2017-05-07T00:17:28.458Z,931.25
2017-05-07T00:17:41.147Z,931.22
2017-05-07T00:17:54.277Z,931.19
2017-05-07T00:18:07.437Z,931.18
2017-05-07T00:18:20.048Z,931.14
2017-05-07T00:18:32.671Z,931.17
2017-05-07T00:18:45.338Z,931.18
2017-05-07T00:18:58.452Z,931.2
2017-05-07T00:19:11.543Z,931.19
2017-05-07T00:19:24.637Z,931.19
2017-05-07T00:19:37.734Z,931.13
2017-05-07T00:19:50.580Z,931.15
2017-05-07T00:20:03.740Z,931.13
2017-05-07T00:20:16.876Z,931.15
2017-05-07T00:20:29.511Z,931.16
2017-05-07T00:20:42.632Z,931.18
2017-05-07T00:20:55.708Z,931.15
2017-05-07T00:21:08.852Z,931.15
2017-05-07T00:21:21.005Z,931.16
2017-05-07T00:21:34.136Z,931.17
2017-05-07T00:21:47.295Z,931.25
2017-05-07T00:22:00.464Z,931.21
2017-05-07T00:22:13.660Z,931.2
2017-05-07T00:22:25.748Z,931.26
2017-05-07T00:22:37.881Z,931.16
2017-05-07T00:22:51.048Z,931.2
2017-05-07T00:23:03.671Z,931.14
2017-05-07T00:23:16.268Z,931.21
2017-05-07T00:23:28.872Z,931.2
2017-05-07T00:23:42.018Z,931.18
2017-05-07T00:23:54.728Z,931.11
2017-05-07T00:24:07.899Z,931.14
2017-05-07T00:24:20.064Z,931.16
2017-05-07T00:24:32.623Z,931.18
2017-05-07T00:24:45.781Z,931.15
2017-05-07T00:24:58.909Z,931.11
2017-05-07T00:25:11.986Z,931.17
2017-05-07T00:25:25.092Z,931.15
2017-05-07T00:25:38.200Z,931.17
2017-05-07T00:25:50.797Z,931.17
2017-05-07T00:26:04.012Z,931.2
2017-05-07T00:26:16.641Z,931.24
2017-05-07T00:26:29.762Z,931.23
2017-05-07T00:26:42.911Z,931.23
2017-05-07T00:26:56.063Z,931.11
2017-05-07T00:27:08.738Z,931.22
2017-05-07T00:27:21.857Z,931.17
2017-05-07T00:27:35.054Z,931.12
2017-05-07T00:27:48.224Z,931.19
2017-05-07T00:28:00.876Z,931.17
2017-05-07T00:28:12.960Z,931.18
2017-05-07T00:28:26.095Z,931.16
2017-05-07T00:28:39.213Z,931.11
2017-05-07T00:28:52.380Z,931.16
2017-05-07T00:29:05.041Z,931.22
2017-05-07T00:29:18.156Z,931.14
2017-05-07T00:29:30.834Z,931.18
2017-05-07T00:29:43.907Z,931.1
2017-05-07T00:29:56.489Z,931.15
2017-05-07T00:30:09.616Z,931.21
2017-05-07T00:30:22.245Z,931.15
2017-05-07T00:30:35.468Z,931.13
2017-05-07T00:30:49.328Z,931.14
2017-05-07T00:31:02.477Z,931.18
2017-05-07T00:31:15.109Z,931.1
2017-05-07T00:31:28.234Z,931.13
2017-05-07T00:31:41.384Z,931.16
2017-05-07T00:31:54.544Z,931.15
2017-05-07T00:32:07.267Z,931.14
2017-05-07T00:32:19.883Z,931.12
2017-05-07T00:32:32.085Z,931.16
2017-05-07T00:32:45.332Z,931.14
2017-05-07T00:32:58.459Z,931.14
2017-05-07T00:33:11.713Z,931.15
2017-05-07T00:33:24.915Z,931.09
2017-05-07T00:33:38.045Z,931.21
2017-05-07T00:33:50.758Z,931.13
2017-05-07T00:34:03.963Z,931.19
2017-05-07T00:34:17.121Z,931.16
2017-05-07T00:34:30.270Z,931.14
2017-05-07T00:34:43.396Z,931.11
2017-05-07T00:34:56.842Z,931.1
2017-05-07T00:35:09.441Z,931.11
2017-05-07T00:35:22.139Z,931.11
2017-05-07T00:35:35.308Z,931.1
2017-05-07T00:35:47.965Z,931.16
2017-05-07T00:36:01.135Z,931.16
2017-05-07T00:36:13.797Z,931.16
2017-05-07T00:36:26.553Z,931.12
2017-05-07T00:36:39.694Z,931.13
2017-05-07T00:36:52.864Z,931.17
2017-05-07T00:37:06.320Z,931.1
2017-05-07T00:37:19.480Z,931.13
2017-05-07T00:37:32.596Z,931.11
2017-05-07T00:37:45.795Z,931.08
2017-05-07T00:37:59.177Z,931.13
2017-05-07T00:38:12.374Z,931.15
2017-05-07T00:38:25.050Z,931.1
2017-05-07T00:38:38.467Z,931.11
2017-05-07T00:38:51.647Z,931.11
2017-05-07T00:39:05.434Z,931.16
2017-05-07T00:39:18.581Z,931.15
2017-05-07T00:39:31.677Z,931.15
2017-05-07T00:39:44.887Z,931.16
2017-05-07T00:39:58.026Z,931.16
2017-05-07T00:40:11.155Z,931.12
2017-05-07T00:40:23.879Z,931.12
2017-05-07T00:40:37.821Z,931.12
2017-05-07T00:40:50.469Z,931.12
2017-05-07T00:41:03.668Z,931.06
2017-05-07T00:41:16.392Z,931.14
2017-05-07T00:41:35.320Z,931.1
2017-05-07T00:42:19.253Z,931.11
2017-05-07T00:43:16.573Z,931.11
2017-05-07T00:43:28.673Z,931.14
2017-05-07T00:43:49.702Z,931.15
2017-05-07T00:44:30.721Z,931.14
2017-05-07T00:45:09.066Z,931.16
2017-05-07T00:45:21.228Z,931.1
2017-05-07T00:45:34.642Z,931.1
2017-05-07T00:45:48.018Z,931.12
2017-05-07T00:46:00.611Z,931.11
2017-05-07T00:46:13.297Z,931.12
2017-05-07T00:46:27.979Z,931.21
2017-05-07T00:46:41.224Z,931.2
2017-05-07T00:46:53.925Z,931.15
2017-05-07T00:47:07.159Z,931.25
2017-05-07T00:47:20.641Z,931.2
2017-05-07T00:47:33.394Z,931.18
2017-05-07T00:47:46.601Z,931.23
2017-05-07T00:47:59.791Z,931.19
2017-05-07T00:48:13.004Z,931.16
2017-05-07T00:48:25.717Z,931.15
2017-05-07T00:48:38.502Z,931.15
2017-05-07T00:48:51.763Z,931.16
2017-05-07T00:49:05.054Z,931.15
2017-05-07T00:49:17.680Z,931.2
2017-05-07T00:49:30.284Z,931.12
2017-05-07T00:49:42.414Z,931.18
2017-05-07T00:49:55.059Z,931.2
2017-05-07T00:50:08.492Z,931.13
2017-05-07T00:50:21.630Z,931.2
2017-05-07T00:50:34.807Z,931.15
2017-05-07T00:50:47.475Z,931.2
2017-05-07T00:51:01.367Z,931.19
2017-05-07T00:51:14.591Z,931.23
2017-05-07T00:51:27.977Z,931.15
2017-05-07T00:51:41.151Z,931.11
2017-05-07T00:51:53.815Z,931.13
2017-05-07T00:52:07.046Z,931.13
2017-05-07T00:52:20.885Z,931.1
2017-05-07T00:52:33.020Z,931.11
2017-05-07T00:52:48.207Z,931.09
2017-05-07T00:53:01.352Z,931.09
2017-05-07T00:53:13.982Z,931.1
2017-05-07T00:53:27.132Z,931.1
2017-05-07T00:53:39.792Z,931.12
2017-05-07T00:53:53.591Z,931.07
2017-05-07T00:54:06.824Z,931.07
2017-05-07T00:54:22.428Z,931.07
2017-05-07T00:54:35.626Z,931.08
2017-05-07T00:54:48.858Z,931.04
2017-05-07T00:55:02.101Z,931.04
2017-05-07T00:55:15.227Z,931.1
2017-05-07T00:55:27.918Z,931.08
2017-05-07T00:55:41.112Z,931.05
2017-05-07T00:55:54.314Z,931.07
2017-05-07T00:56:07.770Z,931.06
2017-05-07T00:56:21.293Z,931.04
2017-05-07T00:56:35.118Z,931.05
2017-05-07T00:56:47.872Z,931.08
2017-05-07T00:57:01.088Z,931.06
2017-05-07T00:57:13.803Z,931.15
2017-05-07T00:57:27.082Z,931.07
2017-05-07T00:57:40.184Z,931.09
2017-05-07T00:57:53.321Z,931.12
2017-05-07T00:58:06.023Z,931.12
2017-05-07T00:58:21.503Z,931.13
2017-05-07T00:58:34.901Z,931.1
2017-05-07T00:58:48.126Z,931.1
2017-05-07T00:59:01.288Z,931.14
2017-05-07T00:59:13.432Z,931.24
2017-05-07T00:59:26.625Z,931.12
2017-05-07T00:59:39.775Z,931.18
2017-05-07T00:59:52.976Z,931.14
2017-05-07T01:00:06.898Z,931.11
2017-05-07T01:00:20.032Z,931.14
2017-05-07T01:00:33.365Z,931.17
2017-05-07T01:00:46.453Z,931.14
2017-05-07T01:00:59.606Z,931.15
2017-05-07T01:01:11.738Z,931.17
2017-05-07T01:01:25.885Z,931.28
2017-05-07T01:01:38.629Z,931.12
2017-05-07T01:01:58.845Z,931.23
2017-05-07T01:02:11.997Z,931.17
2017-05-07T01:02:24.871Z,931.07
2017-05-07T01:02:38.909Z,931.13
2017-05-07T01:02:52.284Z,931.09
2017-05-07T01:03:09.799Z,931.09
2017-05-07T01:03:23.413Z,931.06
2017-05-07T01:03:37.392Z,931.09
2017-05-07T01:03:51.516Z,931.1
2017-05-07T01:04:04.669Z,931.06
2017-05-07T01:04:17.319Z,931.1
2017-05-07T01:04:30.557Z,931.06
2017-05-07T01:04:44.603Z,931.08
2017-05-07T01:05:01.485Z,931.08
2017-05-07T01:05:15.869Z,931.08
2017-05-07T01:05:29.021Z,931.09
2017-05-07T01:05:42.187Z,931.04
2017-05-07T01:05:55.348Z,931.09
2017-05-07T01:06:07.965Z,931.12
2017-05-07T01:06:20.107Z,931.04
2017-05-07T01:06:33.259Z,931.04
2017-05-07T01:06:46.613Z,931
2017-05-07T01:06:59.832Z,931.07
2017-05-07T01:07:12.511Z,931.03
2017-05-07T01:07:24.641Z,931.05
2017-05-07T01:07:37.745Z,931.04
2017-05-07T01:07:50.434Z,931.08
2017-05-07T01:08:08.678Z,931.03
2017-05-07T01:08:22.525Z,931.05
2017-05-07T01:08:36.401Z,931.05
2017-05-07T01:08:50.980Z,931.04
2017-05-07T01:09:04.107Z,931.06
2017-05-07T01:09:17.300Z,931.06
2017-05-07T01:09:50.285Z,931.07
2017-05-07T01:10:24.468Z,931.08
2017-05-07T01:10:44.495Z,931.04
2017-05-07T01:10:58.533Z,931.06
2017-05-07T01:11:13.631Z,931.07
2017-05-07T01:11:26.233Z,931.08
2017-05-07T01:11:39.343Z,931.08
2017-05-07T01:11:52.737Z,931.08
2017-05-07T01:12:07.130Z,931.06
2017-05-07T01:12:20.093Z,931.05
2017-05-07T01:12:32.824Z,931.05
2017-05-07T01:12:46.085Z,931.05
2017-05-07T01:12:59.532Z,931.04
2017-05-07T01:13:12.487Z,931.07
2017-05-07T01:13:27.648Z,931.05
2017-05-07T01:13:40.817Z,931.04
2017-05-07T01:13:54.041Z,931.11
2017-05-07T01:14:07.461Z,931.06
2017-05-07T01:14:19.851Z,930.99
2017-05-07T01:14:33.024Z,931.08
2017-05-07T01:14:48.173Z,931.05
2017-05-07T01:15:09.216Z,931.08
2017-05-07T01:15:25.890Z,931.03
2017-05-07T01:15:45.591Z,931.06
2017-05-07T01:16:01.247Z,931.05
2017-05-07T01:16:14.755Z,931.07
2017-05-07T01:16:34.151Z,931.04
2017-05-07T01:16:47.393Z,931.02
2017-05-07T01:17:01.491Z,931.04
2017-05-07T01:17:24.402Z,931.01
2017-05-07T01:17:52.701Z,931.04
2017-05-07T01:18:08.794Z,930.98
2017-05-07T01:18:22.224Z,931.02
2017-05-07T01:18:36.688Z,931.01
2017-05-07T01:18:49.561Z,930.99
2017-05-07T01:19:02.293Z,931.05
2017-05-07T01:19:14.969Z,931.03
2017-05-07T01:19:33.195Z,931.03
2017-05-07T01:19:46.448Z,930.99
2017-05-07T01:20:05.938Z,930.97
2017-05-07T01:20:46.768Z,931.01
2017-05-07T01:20:59.942Z,930.97
2017-05-07T01:21:13.419Z,930.97
2017-05-07T01:22:23.890Z,930.95
2017-05-07T01:22:36.510Z,930.97
2017-05-07T01:22:49.954Z,930.98
2017-05-07T01:23:13.747Z,930.93
2017-05-07T01:23:26.841Z,930.96
2017-05-07T01:24:55.827Z,930.93
2017-05-07T01:25:19.991Z,930.95
2017-05-07T01:25:47.177Z,930.88
2017-05-07T01:26:03.549Z,930.96
2017-05-07T01:26:35.885Z,930.9
2017-05-07T01:27:39.439Z,930.92
2017-05-07T01:27:59.648Z,930.96
2017-05-07T01:28:13.095Z,930.92
2017-05-07T01:28:25.738Z,930.93
2017-05-07T01:28:43.525Z,930.91
2017-05-07T01:28:57.552Z,930.92
2017-05-07T01:29:46.906Z,930.93
2017-05-07T01:30:00.094Z,930.94
2017-05-07T01:30:51.827Z,930.94
2017-05-07T01:31:05.608Z,930.93
2017-05-07T01:31:19.575Z,930.97
2017-05-07T01:32:29.933Z,930.92
2017-05-07T01:32:44.941Z,930.98
2017-05-07T01:33:12.372Z,930.97
2017-05-07T01:33:48.218Z,931.01
2017-05-07T01:34:01.285Z,931.01
2017-05-07T01:35:01.371Z,931.01
2017-05-07T01:35:50.483Z,931.01
2017-05-07T01:36:08.567Z,930.98
2017-05-07T01:36:25.400Z,931
2017-05-07T01:37:11.911Z,931.02
2017-05-07T01:37:54.520Z,931.02
2017-05-07T01:38:08.442Z,930.98
2017-05-07T01:38:21.558Z,931.01
2017-05-07T01:38:41.192Z,930.95
2017-05-07T01:40:08.212Z,930.97
2017-05-07T01:40:54.023Z,930.97
2017-05-07T01:41:37.876Z,930.93
2017-05-07T01:42:23.158Z,930.92
2017-05-07T01:42:36.686Z,930.91
2017-05-07T01:43:36.043Z,930.92
2017-05-07T01:44:20.152Z,930.94
2017-05-07T01:44:43.762Z,930.92
2017-05-07T01:45:28.290Z,930.93
2017-05-07T01:46:30.608Z,930.98
2017-05-07T01:47:15.189Z,930.96
2017-05-07T01:47:42.266Z,930.96
2017-05-07T01:49:24.126Z,930.98
2017-05-07T01:51:35.655Z,930.99
2017-05-07T01:52:41.496Z,930.93
2017-05-07T01:54:14.008Z,930.96
2017-05-07T01:56:08.116Z,930.92
2017-05-07T01:58:23.288Z,930.94
2017-05-07T01:59:53.594Z,930.93
2017-05-07T02:00:56.817Z,930.92
2017-05-07T02:03:03.553Z,930.87
2017-05-07T02:03:58.160Z,930.87
2017-05-07T02:06:23.811Z,930.83
2017-05-07T02:07:30.295Z,930.83
2017-05-07T02:11:11.274Z,930.83
2017-05-07T02:11:23.923Z,930.83
2017-05-07T02:12:12.706Z,930.78
2017-05-07T02:12:25.912Z,930.77
2017-05-07T02:13:05.564Z,930.79
2017-05-07T02:13:25.644Z,930.76
2017-05-07T02:13:38.241Z,930.75
2017-05-07T02:13:51.313Z,930.78
2017-05-07T02:14:43.385Z,930.81
2017-05-07T02:14:56.549Z,930.79
2017-05-07T02:15:12.733Z,930.77
2017-05-07T02:16:29.215Z,930.74
2017-05-07T02:16:42.356Z,930.74
2017-05-07T02:16:55.571Z,930.77
2017-05-07T02:17:10.888Z,930.79
2017-05-07T02:17:47.058Z,930.73
2017-05-07T02:18:00.230Z,930.78
2017-05-07T02:19:35.763Z,930.72
2017-05-07T02:20:44.806Z,930.71
2017-05-07T02:22:15.531Z,930.72
2017-05-07T02:22:29.922Z,930.74
2017-05-07T02:22:45.260Z,930.75
2017-05-07T02:23:14.451Z,930.71
2017-05-07T02:24:01.054Z,930.77
2017-05-07T02:24:29.119Z,930.76
2017-05-07T02:24:42.283Z,930.7
2017-05-07T02:25:16.304Z,930.66
2017-05-07T02:25:39.628Z,930.7
2017-05-07T02:25:56.565Z,930.68
2017-05-07T02:26:19.990Z,930.72
2017-05-07T02:26:33.122Z,930.66
2017-05-07T02:26:49.604Z,930.64
2017-05-07T02:27:04.184Z,930.64
2017-05-07T02:27:19.341Z,930.71
2017-05-07T02:27:32.829Z,930.68
2017-05-07T02:27:49.098Z,930.65
2017-05-07T02:28:08.140Z,930.64
2017-05-07T02:28:20.797Z,930.65
2017-05-07T02:28:37.651Z,930.67
2017-05-07T02:28:51.107Z,930.66
2017-05-07T02:29:20.336Z,930.7
2017-05-07T02:30:20.457Z,930.66
2017-05-07T02:30:38.663Z,930.6
2017-05-07T02:30:51.813Z,930.63
2017-05-07T02:31:14.746Z,930.64
2017-05-07T02:31:27.921Z,930.63
2017-05-07T02:31:41.052Z,930.63
2017-05-07T02:31:55.462Z,930.6
2017-05-07T02:32:15.684Z,930.61
2017-05-07T02:32:28.283Z,930.65
2017-05-07T02:32:46.519Z,930.65
2017-05-07T02:33:32.971Z,930.58
2017-05-07T02:33:46.072Z,930.62
2017-05-07T02:33:59.714Z,930.62
2017-05-07T02:34:25.166Z,930.6
2017-05-07T02:36:20.058Z,930.57
2017-05-07T02:36:38.996Z,930.58
2017-05-07T02:36:54.151Z,930.55
2017-05-07T02:37:07.058Z,930.57
2017-05-07T02:37:26.030Z,930.59
2017-05-07T02:37:44.992Z,930.6
2017-05-07T02:38:35.082Z,930.55
2017-05-07T02:38:49.720Z,930.55
2017-05-07T02:39:02.328Z,930.56
2017-05-07T02:39:16.691Z,930.55
2017-05-07T02:39:29.857Z,930.58
2017-05-07T02:39:43.082Z,930.58
2017-05-07T02:39:56.247Z,930.56
2017-05-07T02:40:10.237Z,930.58
2017-05-07T02:40:25.705Z,930.6
2017-05-07T02:41:10.827Z,930.58
2017-05-07T02:41:27.890Z,930.57
2017-05-07T02:42:25.202Z,930.55
2017-05-07T02:42:38.390Z,930.59
2017-05-07T02:42:52.365Z,930.56
2017-05-07T02:43:05.509Z,930.57
2017-05-07T02:43:18.159Z,930.55
2017-05-07T02:43:30.809Z,930.56
2017-05-07T02:43:44.020Z,930.55
2017-05-07T02:43:57.246Z,930.53
2017-05-07T02:44:11.254Z,930.55
2017-05-07T02:44:23.881Z,930.55
2017-05-07T02:44:40.748Z,930.54
2017-05-07T02:44:55.137Z,930.5
2017-05-07T02:45:13.456Z,930.51
2017-05-07T02:45:31.460Z,930.51
2017-05-07T02:45:44.649Z,930.49
2017-05-07T02:45:57.736Z,930.47
2017-05-07T02:46:11.543Z,930.52
2017-05-07T02:46:24.768Z,930.51
2017-05-07T02:46:38.403Z,930.52
2017-05-07T02:46:53.808Z,930.5
2017-05-07T02:47:07.231Z,930.49
2017-05-07T02:47:20.399Z,930.5
2017-05-07T02:47:34.221Z,930.53
2017-05-07T02:47:47.347Z,930.48
2017-05-07T02:48:01.419Z,930.47
2017-05-07T02:48:16.418Z,930.51
2017-05-07T02:48:32.180Z,930.49
2017-05-07T02:48:45.421Z,930.46
2017-05-07T02:48:58.718Z,930.5
2017-05-07T02:49:12.698Z,930.5
2017-05-07T02:49:45.328Z,930.47
2017-05-07T02:50:01.600Z,930.46
2017-05-07T02:50:14.781Z,930.53
2017-05-07T02:50:29.187Z,930.49
2017-05-07T02:50:43.121Z,930.48
2017-05-07T02:50:56.297Z,930.46
2017-05-07T02:51:09.455Z,930.46
2017-05-07T02:51:22.160Z,930.46
2017-05-07T02:51:35.617Z,930.47
2017-05-07T02:51:48.739Z,930.45
2017-05-07T02:52:01.358Z,930.47
2017-05-07T02:52:15.027Z,930.47
2017-05-07T02:52:28.192Z,930.5
2017-05-07T02:52:41.383Z,930.47
2017-05-07T02:53:04.450Z,930.46
2017-05-07T02:53:17.626Z,930.46
2017-05-07T02:53:30.287Z,930.44
2017-05-07T02:53:43.649Z,930.49
2017-05-07T02:53:56.820Z,930.49
2017-05-07T02:54:08.951Z,930.44
2017-05-07T02:54:22.061Z,930.46
2017-05-07T02:54:35.282Z,930.47
2017-05-07T02:54:49.888Z,930.41
2017-05-07T02:55:03.105Z,930.42
2017-05-07T02:55:15.751Z,930.43
2017-05-07T02:55:29.007Z,930.4
2017-05-07T02:55:42.209Z,930.43
2017-05-07T02:55:55.628Z,930.41
2017-05-07T02:56:07.805Z,930.42
2017-05-07T02:56:20.954Z,930.44
2017-05-07T02:56:34.027Z,930.41
2017-05-07T02:56:47.207Z,930.41
2017-05-07T02:57:00.348Z,930.42
2017-05-07T02:57:14.809Z,930.38
2017-05-07T02:57:27.962Z,930.38
2017-05-07T02:57:48.676Z,930.42
2017-05-07T02:58:01.918Z,930.4
2017-05-07T02:58:15.055Z,930.41
2017-05-07T02:58:28.303Z,930.42
2017-05-07T02:58:41.022Z,930.44
2017-05-07T02:58:54.197Z,930.4
2017-05-07T02:59:06.811Z,930.42
2017-05-07T02:59:19.921Z,930.39
2017-05-07T02:59:32.583Z,930.42
2017-05-07T02:59:45.724Z,930.42
2017-05-07T02:59:58.842Z,930.42
2017-05-07T03:00:11.519Z,930.37
2017-05-07T03:00:24.675Z,930.4
2017-05-07T03:00:37.832Z,930.42
2017-05-07T03:00:51.487Z,930.39
2017-05-07T03:01:04.930Z,930.42
2017-05-07T03:01:18.236Z,930.43
2017-05-07T03:01:31.116Z,930.4
2017-05-07T03:01:44.341Z,930.41
2017-05-07T03:02:16.763Z,930.4
2017-05-07T03:02:42.364Z,930.37
2017-05-07T03:02:56.575Z,930.41
2017-05-07T03:03:09.751Z,930.4
2017-05-07T03:03:22.933Z,930.39
2017-05-07T03:03:35.128Z,930.38
2017-05-07T03:03:48.289Z,930.38
2017-05-07T03:04:01.435Z,930.35
2017-05-07T03:04:14.065Z,930.36
2017-05-07T03:04:27.296Z,930.35
2017-05-07T03:04:40.406Z,930.34
2017-05-07T03:04:53.513Z,930.38
2017-05-07T03:05:06.634Z,930.4
2017-05-07T03:05:19.213Z,930.36
2017-05-07T03:05:31.823Z,930.35
2017-05-07T03:05:44.903Z,930.39
2017-05-07T03:05:58.051Z,930.4
2017-05-07T03:06:11.221Z,930.38
2017-05-07T03:06:24.646Z,930.37
2017-05-07T03:06:37.851Z,930.35
2017-05-07T03:06:51.020Z,930.35
2017-05-07T03:07:04.231Z,930.36
2017-05-07T03:07:17.369Z,930.37
2017-05-07T03:07:30.571Z,930.39
2017-05-07T03:07:43.294Z,930.38
2017-05-07T03:07:55.936Z,930.37
2017-05-07T03:08:08.602Z,930.41
2017-05-07T03:08:21.202Z,930.35
2017-05-07T03:08:34.302Z,930.37
2017-05-07T03:08:47.661Z,930.36
2017-05-07T03:09:00.783Z,930.33
2017-05-07T03:09:13.919Z,930.34
2017-05-07T03:09:26.616Z,930.35
2017-05-07T03:09:39.271Z,930.34
2017-05-07T03:09:51.935Z,930.35
2017-05-07T03:10:05.110Z,930.3
2017-05-07T03:10:18.447Z,930.34
2017-05-07T03:10:31.565Z,930.33
2017-05-07T03:10:44.714Z,930.33
2017-05-07T03:10:57.850Z,930.33
2017-05-07T03:11:10.923Z,930.33
2017-05-07T03:11:24.024Z,930.36
2017-05-07T03:11:36.653Z,930.3
2017-05-07T03:11:49.761Z,930.28
2017-05-07T03:12:02.961Z,930.29
2017-05-07T03:12:16.128Z,930.25
2017-05-07T03:12:29.270Z,930.33
2017-05-07T03:12:42.380Z,930.29
2017-05-07T03:12:55.550Z,930.32
2017-05-07T03:13:08.673Z,930.32
2017-05-07T03:13:21.287Z,930.3
2017-05-07T03:13:34.456Z,930.32
2017-05-07T03:13:47.605Z,930.32
2017-05-07T03:14:00.799Z,930.31
2017-05-07T03:14:12.955Z,930.33
2017-05-07T03:14:26.055Z,930.36
2017-05-07T03:14:39.175Z,930.37
2017-05-07T03:14:52.342Z,930.37
2017-05-07T03:15:05.601Z,930.32
2017-05-07T03:15:18.227Z,930.33
2017-05-07T03:15:31.357Z,930.33
2017-05-07T03:15:44.480Z,930.35
2017-05-07T03:15:57.667Z,930.34
2017-05-07T03:16:10.824Z,930.32
2017-05-07T03:16:23.433Z,930.33
2017-05-07T03:16:36.609Z,930.32
2017-05-07T03:16:49.815Z,930.32
2017-05-07T03:17:09.331Z,930.32
2017-05-07T03:17:29.368Z,930.33
2017-05-07T03:17:42.554Z,930.31
2017-05-07T03:17:55.697Z,930.34
2017-05-07T03:18:08.598Z,930.35
2017-05-07T03:18:21.705Z,930.31
2017-05-07T03:18:34.848Z,930.31
2017-05-07T03:18:47.991Z,930.33
2017-05-07T03:19:01.165Z,930.32
2017-05-07T03:19:14.461Z,930.32
2017-05-07T03:19:28.787Z,930.34
2017-05-07T03:19:41.880Z,930.37
2017-05-07T03:19:55.087Z,930.35
2017-05-07T03:20:08.241Z,930.34
2017-05-07T03:20:20.915Z,930.35
2017-05-07T03:20:34.166Z,930.35
2017-05-07T03:20:47.293Z,930.36
2017-05-07T03:20:59.916Z,930.37
2017-05-07T03:21:12.567Z,930.36
2017-05-07T03:21:25.747Z,930.34
2017-05-07T03:21:38.979Z,930.35
2017-05-07T03:21:51.592Z,930.37
2017-05-07T03:22:04.239Z,930.34
2017-05-07T03:22:17.447Z,930.35
2017-05-07T03:22:29.607Z,930.35
2017-05-07T03:22:42.788Z,930.37
2017-05-07T03:22:55.424Z,930.35
2017-05-07T03:23:08.542Z,930.39
2017-05-07T03:23:21.192Z,930.38
2017-05-07T03:23:34.295Z,930.37
2017-05-07T03:23:47.421Z,930.38
2017-05-07T03:24:00.874Z,930.36
2017-05-07T03:24:14.003Z,930.36
2017-05-07T03:24:27.181Z,930.35
2017-05-07T03:24:40.346Z,930.34
2017-05-07T03:24:53.462Z,930.36
2017-05-07T03:25:06.571Z,930.37
2017-05-07T03:25:19.226Z,930.37
2017-05-07T03:25:32.349Z,930.36
2017-05-07T03:25:45.490Z,930.35
2017-05-07T03:25:58.684Z,930.39
2017-05-07T03:26:11.821Z,930.36
2017-05-07T03:26:24.982Z,930.35
2017-05-07T03:26:37.545Z,930.37
2017-05-07T03:26:50.695Z,930.35
2017-05-07T03:27:03.895Z,930.38
2017-05-07T03:27:17.341Z,930.32
2017-05-07T03:27:30.626Z,930.36
2017-05-07T03:27:43.782Z,930.38
2017-05-07T03:27:56.928Z,930.35
2017-05-07T03:28:09.046Z,930.31
2017-05-07T03:28:21.701Z,930.33
2017-05-07T03:28:34.858Z,930.34
2017-05-07T03:28:48.014Z,930.35
2017-05-07T03:29:01.141Z,930.33
2017-05-07T03:29:14.524Z,930.33
2017-05-07T03:29:27.180Z,930.35
2017-05-07T03:29:40.368Z,930.33
2017-05-07T03:29:53.567Z,930.34
2017-05-07T03:30:06.706Z,930.32
2017-05-07T03:30:18.842Z,930.32
2017-05-07T03:30:31.955Z,930.32
2017-05-07T03:30:45.147Z,930.31
2017-05-07T03:30:58.343Z,930.31
2017-05-07T03:31:11.477Z,930.32
2017-05-07T03:31:24.159Z,930.32
2017-05-07T03:31:37.299Z,930.31
2017-05-07T03:31:50.427Z,930.27
2017-05-07T03:32:03.553Z,930.33
2017-05-07T03:32:16.174Z,930.3
2017-05-07T03:32:29.277Z,930.3
2017-05-07T03:32:41.961Z,930.33
2017-05-07T03:32:55.152Z,930.34
2017-05-07T03:33:08.280Z,930.34
2017-05-07T03:33:21.428Z,930.34
2017-05-07T03:33:34.556Z,930.28
2017-05-07T03:33:47.673Z,930.3
2017-05-07T03:34:00.774Z,930.32
2017-05-07T03:34:13.948Z,930.33
2017-05-07T03:34:26.620Z,930.32
2017-05-07T03:34:39.305Z,930.32
2017-05-07T03:34:52.471Z,930.29
2017-05-07T03:35:05.093Z,930.3
2017-05-07T03:35:17.770Z,930.28
2017-05-07T03:35:30.945Z,930.28
2017-05-07T03:35:44.079Z,930.29
2017-05-07T03:35:56.677Z,930.3
2017-05-07T03:36:09.910Z,930.29
2017-05-07T03:36:23.043Z,930.29
2017-05-07T03:36:36.179Z,930.29
2017-05-07T03:36:49.240Z,930.28
2017-05-07T03:37:01.847Z,930.29
2017-05-07T03:37:14.976Z,930.3
2017-05-07T03:37:28.061Z,930.29
2017-05-07T03:37:41.213Z,930.27
2017-05-07T03:37:54.382Z,930.28
2017-05-07T03:38:07.592Z,930.3
2017-05-07T03:38:20.770Z,930.28
2017-05-07T03:38:33.939Z,930.27
2017-05-07T03:38:47.053Z,930.28
2017-05-07T03:39:00.412Z,930.3
2017-05-07T03:39:13.529Z,930.27
2017-05-07T03:39:26.601Z,930.27
2017-05-07T03:39:39.730Z,930.28
2017-05-07T03:39:52.427Z,930.26
2017-05-07T03:40:05.552Z,930.27
2017-05-07T03:40:17.691Z,930.26
2017-05-07T03:40:30.336Z,930.26
2017-05-07T03:40:43.458Z,930.29
2017-05-07T03:40:56.575Z,930.23
2017-05-07T03:41:09.177Z,930.25
2017-05-07T03:41:22.309Z,930.26
2017-05-07T03:41:35.435Z,930.27
2017-05-07T03:41:48.578Z,930.26
2017-05-07T03:42:01.680Z,930.26
2017-05-07T03:42:14.804Z,930.24
2017-05-07T03:42:27.890Z,930.23
2017-05-07T03:42:40.474Z,930.25
2017-05-07T03:42:53.586Z,930.23
2017-05-07T03:43:06.227Z,930.24